Terminal Aerodrome Forecast
Issued by NWS Sioux Falls, SD

Home | Current Version | Previous Version | Text Only | Print | Product List | Glossary On
Versions: 1 2 3 4 5 6 7 8 9 10 11 12 13 14 15 16 17 18 19 20 21 22 23 24
000
FTUS43 KFSD 240846 AAB
TAFFSD
TAF AMD
KFSD 240846Z 2409/2506 11004KT 1/2SM FZFG OVC002
     FM241200 VRB03KT 3SM BR BKN007
     FM241600 09009KT 3/4SM -SN OVC005
     FM242300 35004KT 1 1/2SM -SN OVC008
     FM250100 30006KT P6SM OVC012=

USA.gov is the U.S. government's official web portal to all federal, state and local government web resources and services.